createdAt,value
2018-08-31T00:01:59.525Z,24.43
2018-08-31T00:04:40.620Z,36.42
2018-08-31T00:07:26.362Z,45.95
2018-08-31T00:12:20.806Z,35.83
2018-08-31T00:14:49.351Z,33.45
2018-08-31T00:17:18.191Z,45.23
2018-08-31T00:19:46.720Z,34.63
2018-08-31T00:22:15.224Z,41.23
2018-08-31T00:24:55.009Z,38.65
2018-08-31T00:27:34.828Z,34.03
2018-08-31T00:30:14.582Z,28.12
2018-08-31T00:33:05.048Z,40.43
2018-08-31T00:36:50.761Z,30.40
2018-08-31T00:41:33.211Z,20.48
2018-08-31T00:44:26.653Z,21.27
2018-08-31T00:46:55.157Z,28.57
2018-08-31T00:49:23.651Z,17.00
2018-08-31T00:51:52.143Z,20.32
2018-08-31T00:54:20.639Z,16.37
2018-08-31T00:56:49.152Z,14.68
2018-08-31T00:59:17.670Z,15.53
2018-08-31T01:01:46.162Z,21.10
2018-08-31T01:04:14.668Z,21.42
2018-08-31T01:06:43.184Z,18.75
2018-08-31T01:09:11.690Z,13.10
2018-08-31T01:11:40.174Z,16.95
2018-08-31T01:14:08.722Z,12.43
2018-08-31T01:16:37.221Z,12.20
2018-08-31T01:19:06.081Z,14.47
2018-08-31T01:21:34.621Z,7.53
2018-08-31T01:24:03.367Z,8.00
2018-08-31T01:26:31.986Z,9.90
2018-08-31T01:29:00.527Z,20.25
2018-08-31T01:31:29.019Z,17.30
2018-08-31T01:33:57.501Z,7.62
2018-08-31T01:36:26.307Z,14.80
2018-08-31T01:38:54.852Z,17.25
2018-08-31T01:41:23.350Z,8.08
2018-08-31T01:43:51.924Z,7.60
2018-08-31T01:46:20.445Z,6.75
2018-08-31T01:48:48.922Z,8.20
2018-08-31T01:51:20.537Z,8.18
2018-08-31T01:53:49.520Z,14.75
2018-08-31T01:56:18.088Z,10.65
2018-08-31T01:58:46.585Z,7.33
2018-08-31T02:01:15.104Z,10.78
2018-08-31T02:03:43.585Z,13.50
2018-08-31T02:06:12.118Z,8.65
2018-08-31T02:08:46.113Z,13.38
2018-08-31T02:11:14.890Z,10.45
2018-08-31T02:13:43.392Z,6.47
2018-08-31T02:16:11.918Z,9.68
2018-08-31T02:18:40.449Z,13.58
2018-08-31T02:21:08.928Z,9.55
2018-08-31T02:23:38.604Z,10.38
2018-08-31T02:26:07.195Z,10.50
2018-08-31T02:28:35.756Z,7.42
2018-08-31T02:31:04.237Z,10.82
2018-08-31T02:33:32.737Z,13.93
2018-08-31T02:36:01.224Z,15.08
2018-08-31T02:38:29.709Z,16.12
2018-08-31T02:40:58.437Z,19.27
2018-08-31T02:43:27.032Z,26.00
2018-08-31T02:45:55.524Z,26.20
2018-08-31T02:48:24.145Z,30.72
2018-08-31T02:50:52.647Z,31.65
2018-08-31T02:53:21.178Z,38.35
2018-08-31T02:55:49.798Z,45.80
2018-08-31T02:58:18.305Z,31.30
2018-08-31T03:00:46.786Z,31.70
2018-08-31T03:03:15.294Z,47.10
2018-08-31T03:05:43.846Z,73.07
2018-08-31T03:08:12.331Z,83.62
2018-08-31T03:10:40.823Z,85.47
2018-08-31T03:13:09.336Z,87.30
2018-08-31T03:15:37.832Z,98.47
2018-08-31T03:18:06.354Z,127.20
2018-08-31T03:20:34.906Z,119.57
2018-08-31T03:23:03.418Z,112.05
2018-08-31T03:25:31.957Z,109.07
2018-08-31T03:28:00.477Z,125.45
2018-08-31T03:30:29.034Z,111.62
2018-08-31T03:32:57.545Z,108.78
2018-08-31T03:35:26.125Z,73.55
2018-08-31T03:37:54.806Z,67.37
2018-08-31T03:40:23.368Z,58.08
2018-08-31T03:42:52.201Z,59.20
2018-08-31T03:45:20.974Z,71.35
2018-08-31T03:47:49.999Z,81.90
2018-08-31T03:50:18.846Z,74.32
2018-08-31T03:52:47.348Z,89.15
2018-08-31T03:55:15.943Z,84.85
2018-08-31T03:57:44.496Z,75.60
2018-08-31T04:00:13.076Z,62.45
2018-08-31T04:02:41.602Z,53.78
2018-08-31T04:05:10.698Z,44.55
2018-08-31T04:07:39.184Z,39.45
2018-08-31T04:10:08.205Z,49.42
2018-08-31T04:12:36.763Z,47.08
2018-08-31T04:15:05.737Z,30.92
2018-08-31T04:17:34.281Z,61.10
2018-08-31T04:20:02.805Z,71.92
2018-08-31T04:22:31.386Z,102.38
2018-08-31T04:24:59.909Z,115.40
2018-08-31T04:27:28.446Z,129.38
2018-08-31T04:29:56.952Z,130.47
2018-08-31T04:32:25.489Z,122.58
2018-08-31T04:34:53.992Z,118.87
2018-08-31T04:37:22.571Z,103.95
2018-08-31T04:39:51.094Z,77.87
2018-08-31T04:42:19.747Z,74.85
2018-08-31T04:44:48.337Z,72.08
2018-08-31T04:47:16.919Z,79.58
2018-08-31T04:49:45.408Z,54.35
2018-08-31T04:52:13.919Z,54.58
2018-08-31T04:54:42.457Z,73.40
2018-08-31T04:57:10.985Z,68.30
2018-08-31T04:59:39.500Z,82.15
2018-08-31T05:02:08.019Z,66.42
2018-08-31T05:04:36.533Z,70.92
2018-08-31T05:07:05.097Z,70.22
2018-08-31T05:09:33.601Z,56.95
2018-08-31T05:12:02.201Z,61.50
2018-08-31T05:14:30.684Z,58.33
2018-08-31T05:16:59.235Z,67.65
2018-08-31T05:19:27.735Z,64.85
2018-08-31T05:21:56.224Z,57.00
2018-08-31T05:24:24.795Z,56.85
2018-08-31T05:26:53.297Z,49.08
2018-08-31T05:29:21.849Z,85.83
2018-08-31T05:31:50.374Z,61.25
2018-08-31T05:34:18.889Z,48.50
2018-08-31T05:36:47.466Z,51.35
2018-08-31T05:39:15.984Z,39.10
2018-08-31T05:41:44.499Z,46.98
2018-08-31T05:44:13.006Z,40.03
2018-08-31T05:46:41.567Z,28.10
2018-08-31T05:49:10.172Z,28.12
2018-08-31T05:51:38.661Z,20.13
2018-08-31T05:54:07.708Z,24.47
2018-08-31T05:56:36.305Z,23.80
2018-08-31T05:59:04.808Z,11.60
2018-08-31T06:01:33.427Z,20.10
2018-08-31T06:04:02.217Z,21.85
2018-08-31T06:06:30.793Z,16.03
2018-08-31T06:08:59.384Z,14.43
2018-08-31T06:11:27.895Z,8.70
2018-08-31T06:13:56.393Z,9.60
2018-08-31T06:16:24.898Z,17.87
2018-08-31T06:18:53.633Z,7.43
2018-08-31T06:21:22.212Z,13.53
2018-08-31T06:23:50.743Z,13.63
2018-08-31T06:26:19.376Z,6.43
2018-08-31T06:28:47.921Z,13.87
2018-08-31T06:31:16.542Z,9.53
2018-08-31T06:33:45.061Z,7.20
2018-08-31T06:36:13.552Z,13.97
2018-08-31T06:38:42.857Z,11.30
2018-08-31T06:41:11.336Z,6.07
2018-08-31T06:43:39.865Z,6.03
2018-08-31T06:46:08.422Z,15.67
2018-08-31T06:48:36.987Z,15.93
2018-08-31T06:51:05.530Z,11.33
2018-08-31T06:53:34.150Z,6.03
2018-08-31T06:56:02.704Z,10.77
2018-08-31T06:58:31.235Z,5.37
2018-08-31T07:00:59.804Z,13.00
2018-08-31T07:03:28.297Z,13.33
2018-08-31T07:05:56.821Z,7.27
2018-08-31T07:08:25.377Z,6.60
2018-08-31T07:10:53.879Z,10.93
2018-08-31T07:13:22.419Z,8.73
2018-08-31T07:15:50.948Z,6.83
2018-08-31T07:18:19.448Z,47.97
2018-08-31T07:20:48.031Z,5.00
2018-08-31T07:23:16.543Z,16.10
2018-08-31T07:25:45.059Z,4.73
2018-08-31T07:28:13.585Z,4.10
2018-08-31T07:30:42.194Z,7.50
2018-08-31T07:33:10.687Z,3.50
2018-08-31T07:35:39.190Z,10.43
2018-08-31T07:38:07.720Z,6.70
2018-08-31T07:40:36.221Z,6.07
2018-08-31T07:43:04.790Z,5.10
2018-08-31T07:45:33.333Z,5.97
2018-08-31T07:48:01.839Z,7.90
2018-08-31T07:50:30.698Z,17.40
2018-08-31T07:52:59.216Z,4.70
2018-08-31T07:55:27.795Z,2.27
2018-08-31T07:57:56.264Z,4.43
2018-08-31T08:00:24.769Z,10.90
2018-08-31T08:02:53.273Z,8.10
2018-08-31T08:05:21.783Z,7.73
2018-08-31T08:07:50.299Z,7.93
2018-08-31T08:10:18.838Z,4.70
2018-08-31T08:12:47.322Z,8.20
2018-08-31T08:15:15.837Z,5.20
2018-08-31T08:17:44.327Z,11.10
2018-08-31T08:20:12.818Z,7.90
2018-08-31T08:22:41.425Z,5.70
2018-08-31T08:25:09.940Z,7.10
2018-08-31T08:27:38.447Z,4.13
2018-08-31T08:30:07.161Z,3.80
2018-08-31T08:32:35.725Z,7.27
2018-08-31T08:35:05.393Z,2.50
2018-08-31T08:37:33.911Z,4.00
2018-08-31T08:40:02.459Z,8.00
2018-08-31T08:42:31.006Z,5.70
2018-08-31T08:44:59.631Z,3.00
2018-08-31T08:47:28.124Z,2.60
2018-08-31T08:49:56.599Z,6.50
2018-08-31T08:52:25.220Z,4.50
2018-08-31T08:54:53.715Z,4.83
2018-08-31T08:57:22.302Z,9.93
2018-08-31T08:59:50.823Z,13.43
2018-08-31T09:02:19.343Z,4.80
2018-08-31T09:04:47.815Z,5.20
2018-08-31T09:07:17.710Z,4.47
2018-08-31T09:09:47.482Z,8.77
2018-08-31T09:12:16.086Z,2.90
2018-08-31T09:14:44.778Z,3.53
2018-08-31T09:17:13.256Z,3.70
2018-08-31T09:19:41.732Z,17.37
2018-08-31T09:22:10.264Z,17.33
2018-08-31T09:24:38.770Z,26.73
2018-08-31T09:27:07.880Z,5.03
2018-08-31T09:29:36.379Z,1.87
2018-08-31T09:32:10.111Z,5.83
2018-08-31T09:34:42.827Z,4.97
2018-08-31T09:37:11.311Z,6.20
2018-08-31T09:39:39.793Z,119.27
2018-08-31T09:42:08.329Z,4.50
2018-08-31T09:44:36.883Z,5.20
2018-08-31T09:47:05.378Z,2.37
2018-08-31T09:49:34.198Z,3.77
2018-08-31T09:52:02.711Z,14.53
2018-08-31T09:54:31.626Z,272.17
2018-08-31T09:57:00.133Z,5.90
2018-08-31T09:59:28.638Z,1.77
2018-08-31T10:02:02.621Z,6.70
2018-08-31T10:04:31.154Z,3.43
2018-08-31T10:06:59.653Z,8.17
2018-08-31T10:09:28.592Z,8.13
2018-08-31T10:11:57.127Z,8.30
2018-08-31T10:14:25.633Z,3.97
2018-08-31T10:16:54.140Z,7.60
2018-08-31T10:19:22.636Z,4.93
2018-08-31T10:21:51.178Z,0.80
2018-08-31T10:24:19.759Z,11.03
2018-08-31T10:26:48.437Z,4.23
2018-08-31T10:29:16.939Z,9.23
2018-08-31T10:31:45.464Z,5.90
2018-08-31T10:34:14.408Z,4.87
2018-08-31T10:36:43.198Z,2.40
2018-08-31T10:39:13.636Z,2.40
2018-08-31T10:41:42.396Z,3.10
2018-08-31T10:44:11.185Z,3.70
2018-08-31T10:46:39.880Z,6.83
2018-08-31T10:49:08.221Z,2.90
2018-08-31T10:51:37.328Z,1.50
2018-08-31T10:54:06.049Z,4.20
2018-08-31T10:56:34.561Z,3.70
2018-08-31T10:59:03.052Z,1.33
2018-08-31T11:01:31.574Z,25.97
2018-08-31T11:04:00.050Z,9.23
2018-08-31T11:06:28.550Z,8.80
2018-08-31T11:08:57.051Z,10.23
2018-08-31T11:11:25.590Z,0.60
2018-08-31T11:13:54.105Z,1.60
2018-08-31T11:16:22.669Z,3.83
2018-08-31T11:18:51.214Z,4.20
2018-08-31T11:21:19.676Z,7.70
2018-08-31T11:23:48.302Z,3.13
2018-08-31T11:26:16.795Z,1.10
2018-08-31T11:28:45.304Z,2.83
2018-08-31T11:31:13.855Z,0.93
2018-08-31T11:33:42.347Z,3.70
2018-08-31T11:36:10.855Z,3.47
2018-08-31T11:38:39.528Z,2.63
2018-08-31T11:41:08.136Z,5.50
2018-08-31T11:43:37.134Z,1.83
2018-08-31T11:46:06.143Z,1.10
2018-08-31T11:48:34.843Z,1.17
2018-08-31T11:51:03.567Z,3.80
2018-08-31T11:53:32.086Z,4.27
2018-08-31T11:56:00.855Z,18.63
2018-08-31T11:58:29.380Z,1.87
2018-08-31T12:00:57.949Z,2.10
2018-08-31T12:03:26.444Z,0.97
2018-08-31T12:05:55.002Z,37.03
2018-08-31T12:08:23.656Z,5.50
2018-08-31T12:10:52.123Z,9.47
2018-08-31T12:13:20.631Z,2.87
2018-08-31T12:15:49.157Z,28.90
2018-08-31T12:18:17.664Z,7.70
2018-08-31T12:20:46.186Z,5.73
2018-08-31T12:23:14.710Z,1.17
2018-08-31T12:25:43.249Z,4.30
2018-08-31T12:28:11.749Z,2.00
2018-08-31T12:30:40.493Z,15.33
2018-08-31T12:33:09.005Z,1.00
2018-08-31T12:35:37.578Z,3.17
2018-08-31T12:38:06.282Z,8.10
2018-08-31T12:40:34.803Z,4.10
2018-08-31T12:43:03.291Z,3.67
2018-08-31T12:45:32.050Z,1.07
2018-08-31T12:48:00.612Z,1.30
2018-08-31T12:50:29.103Z,3.50
2018-08-31T12:52:57.639Z,0.87
2018-08-31T12:55:26.165Z,2.10
2018-08-31T12:57:54.816Z,0.60
2018-08-31T13:00:23.551Z,3.03
2018-08-31T13:02:52.061Z,4.23
2018-08-31T13:05:20.572Z,12.47
2018-08-31T13:07:49.116Z,3.93
2018-08-31T13:10:17.683Z,1.73
2018-08-31T13:12:46.390Z,0.70
2018-08-31T13:15:15.437Z,1.00
2018-08-31T13:17:44.035Z,1.17
2018-08-31T13:20:12.538Z,0.63
2018-08-31T13:22:41.400Z,1.40
2018-08-31T13:25:09.978Z,1.20
2018-08-31T13:27:38.435Z,5.13
2018-08-31T13:30:07.804Z,2.53
2018-08-31T13:32:36.304Z,2.60
2018-08-31T13:35:04.826Z,2.23
2018-08-31T13:37:33.338Z,0.67
2018-08-31T13:40:01.919Z,8.93
2018-08-31T13:42:30.509Z,0.70
2018-08-31T13:44:59.042Z,2.33
2018-08-31T13:47:27.680Z,1.93
2018-08-31T13:49:56.191Z,1.37
2018-08-31T13:52:24.721Z,2.60
2018-08-31T13:54:53.191Z,2.93
2018-08-31T13:57:21.814Z,0.60
2018-08-31T13:59:50.400Z,0.83
2018-08-31T14:02:18.989Z,3.13
2018-08-31T14:04:47.556Z,2.17
2018-08-31T14:07:16.087Z,4.27
2018-08-31T14:09:44.573Z,2.93
2018-08-31T14:12:13.059Z,3.90
2018-08-31T14:14:41.697Z,3.23
2018-08-31T14:17:10.202Z,0.87
2018-08-31T14:19:38.750Z,2.20
2018-08-31T14:22:07.247Z,11.20
2018-08-31T14:24:35.752Z,3.23
2018-08-31T14:27:04.268Z,6.73
2018-08-31T14:29:33.095Z,1.80
2018-08-31T14:32:01.542Z,0.87
2018-08-31T14:34:30.024Z,8.40
2018-08-31T14:36:58.533Z,8.60
2018-08-31T14:39:27.042Z,4.40
2018-08-31T14:41:55.496Z,1.93
2018-08-31T14:44:24.002Z,1.00
2018-08-31T14:46:52.505Z,0.70
2018-08-31T14:49:21.013Z,2.40
2018-08-31T14:51:49.540Z,7.27
2018-08-31T14:54:18.026Z,1.13
2018-08-31T14:56:46.537Z,19.90
2018-08-31T14:59:15.094Z,2.77
2018-08-31T15:01:43.982Z,11.80
2018-08-31T15:04:12.513Z,3.47
2018-08-31T15:06:41.056Z,3.73
2018-08-31T15:09:10.472Z,1.63
2018-08-31T15:11:39.041Z,3.37
2018-08-31T15:14:07.593Z,1.03
2018-08-31T15:16:36.399Z,1.83
2018-08-31T15:19:05.178Z,0.97
2018-08-31T15:21:33.734Z,3.87
2018-08-31T15:24:02.472Z,7.07
2018-08-31T15:26:30.996Z,2.50
2018-08-31T15:28:59.517Z,3.00
2018-08-31T15:31:28.123Z,2.20
2018-08-31T15:33:56.545Z,3.30
2018-08-31T15:36:25.079Z,2.53
2018-08-31T15:38:53.581Z,2.50
2018-08-31T15:41:22.074Z,0.57
2018-08-31T15:43:50.576Z,7.17
2018-08-31T15:46:19.835Z,4.63
2018-08-31T15:48:48.319Z,2.47
2018-08-31T15:51:16.817Z,6.73
2018-08-31T15:53:45.321Z,31.43
2018-08-31T15:56:13.807Z,6.73
2018-08-31T15:58:42.320Z,4.50
2018-08-31T16:01:10.780Z,8.07
2018-08-31T16:03:39.309Z,1.67
2018-08-31T16:06:07.825Z,5.60
2018-08-31T16:08:36.357Z,1.90
2018-08-31T16:11:04.896Z,2.97
2018-08-31T16:13:33.404Z,5.53
2018-08-31T16:16:01.889Z,10.53
2018-08-31T16:18:30.379Z,3.37
2018-08-31T16:20:59.078Z,3.03
2018-08-31T16:23:27.576Z,5.93
2018-08-31T16:25:56.367Z,5.40
2018-08-31T16:28:25.287Z,2.30
2018-08-31T16:30:53.803Z,1.60
2018-08-31T16:33:22.303Z,1.60
2018-08-31T16:35:50.807Z,4.30
2018-08-31T16:38:19.341Z,12.57
2018-08-31T16:40:47.961Z,5.93
2018-08-31T16:43:16.523Z,2.77
2018-08-31T16:45:45.027Z,1.60
2018-08-31T16:48:13.510Z,4.10
2018-08-31T16:50:41.993Z,4.37
2018-08-31T16:53:10.481Z,3.97
2018-08-31T16:55:38.986Z,1.50
2018-08-31T16:58:07.513Z,4.40
2018-08-31T17:00:36.019Z,2.73
2018-08-31T17:03:04.527Z,7.93
2018-08-31T17:05:33.032Z,2.53
2018-08-31T17:08:01.535Z,6.60
2018-08-31T17:10:30.031Z,1.47
2018-08-31T17:12:58.567Z,3.47
2018-08-31T17:15:27.134Z,10.43
2018-08-31T17:17:55.646Z,2.10
2018-08-31T17:20:24.186Z,0.80
2018-08-31T17:22:52.711Z,4.83
2018-08-31T17:25:21.368Z,3.13
2018-08-31T17:27:55.320Z,2.60
2018-08-31T17:30:24.162Z,6.97
2018-08-31T17:32:58.012Z,1.67
2018-08-31T17:35:32.064Z,8.60
2018-08-31T17:38:01.596Z,4.40
2018-08-31T17:40:30.397Z,1.63
2018-08-31T17:42:59.740Z,5.83
2018-08-31T17:45:28.279Z,19.13
2018-08-31T17:47:56.847Z,9.10
2018-08-31T17:50:25.358Z,17.53
2018-08-31T17:52:54.030Z,5.90
2018-08-31T17:55:22.524Z,3.67
2018-08-31T17:57:51.194Z,2.93
2018-08-31T18:00:19.708Z,2.20
2018-08-31T18:02:48.203Z,5.70
2018-08-31T18:05:16.697Z,9.00
2018-08-31T18:07:45.216Z,2.30
2018-08-31T18:10:13.708Z,1.33
2018-08-31T18:12:42.188Z,3.27
2018-08-31T18:15:10.725Z,1.03
2018-08-31T18:17:39.205Z,2.40
2018-08-31T18:20:07.778Z,8.23
2018-08-31T18:22:36.320Z,4.23
2018-08-31T18:25:05.241Z,10.30
2018-08-31T18:27:33.898Z,6.43
2018-08-31T18:30:02.412Z,2.00
2018-08-31T18:32:30.915Z,13.20
2018-08-31T18:34:59.389Z,12.80
2018-08-31T18:37:27.933Z,10.80
2018-08-31T18:39:56.468Z,18.27
2018-08-31T18:42:24.957Z,17.93
2018-08-31T18:44:53.497Z,29.10
2018-08-31T18:47:22.000Z,10.03
2018-08-31T18:49:50.557Z,2.93
2018-08-31T18:52:19.164Z,2.00
2018-08-31T18:54:47.757Z,7.90
2018-08-31T18:57:16.336Z,8.90
2018-08-31T18:59:44.854Z,8.77
2018-08-31T19:02:13.557Z,2.60
2018-08-31T19:04:42.100Z,2.60
2018-08-31T19:07:10.616Z,1.87
2018-08-31T19:09:39.129Z,1.97
2018-08-31T19:12:07.319Z,8.13
2018-08-31T19:14:35.865Z,2.67
2018-08-31T19:17:04.454Z,5.00
2018-08-31T19:19:33.073Z,14.53
2018-08-31T19:22:01.601Z,2.80
2018-08-31T19:24:30.315Z,7.60
2018-08-31T19:26:58.798Z,30.70
2018-08-31T19:29:28.122Z,15.00
2018-08-31T19:31:56.626Z,15.43
2018-08-31T19:34:25.130Z,23.93
2018-08-31T19:36:53.648Z,4.33
2018-08-31T19:39:22.253Z,8.60
2018-08-31T19:41:50.801Z,17.00
2018-08-31T19:44:19.360Z,10.20
2018-08-31T19:46:47.922Z,6.03
2018-08-31T19:49:16.384Z,3.30
2018-08-31T19:51:44.900Z,6.50
2018-08-31T19:54:13.412Z,3.92
2018-08-31T19:56:41.930Z,3.53
2018-08-31T19:59:10.454Z,7.37
2018-08-31T20:01:39.029Z,13.43
2018-08-31T20:04:07.566Z,7.28
2018-08-31T20:06:36.191Z,11.43
2018-08-31T20:09:06.363Z,4.90
2018-08-31T20:11:34.870Z,3.60
2018-08-31T20:14:03.529Z,5.72
2018-08-31T20:16:32.058Z,7.33
2018-08-31T20:19:00.579Z,10.68
2018-08-31T20:21:29.170Z,7.65
2018-08-31T20:23:57.749Z,6.30
2018-08-31T20:26:26.286Z,3.92
2018-08-31T20:28:54.821Z,8.18
2018-08-31T20:31:23.329Z,6.45
2018-08-31T20:33:51.842Z,3.47
2018-08-31T20:36:20.375Z,8.33
2018-08-31T20:38:48.883Z,6.10
2018-08-31T20:41:17.385Z,9.83
2018-08-31T20:43:45.910Z,11.80
2018-08-31T20:46:14.422Z,4.28
2018-08-31T20:48:42.958Z,10.35
2018-08-31T20:51:11.594Z,11.12
2018-08-31T20:53:40.126Z,15.35
2018-08-31T20:56:08.622Z,7.70
2018-08-31T20:58:37.207Z,7.45
2018-08-31T21:01:05.959Z,10.58
2018-08-31T21:03:34.525Z,29.63
2018-08-31T21:06:03.105Z,41.28
2018-08-31T21:08:31.660Z,36.75
2018-08-31T21:11:00.164Z,47.95
2018-08-31T21:13:28.683Z,44.75
2018-08-31T21:15:57.185Z,53.48
2018-08-31T21:18:25.750Z,58.40
2018-08-31T21:20:54.264Z,68.97
2018-08-31T21:23:22.805Z,81.72
2018-08-31T21:25:51.326Z,59.18
2018-08-31T21:28:19.834Z,75.90
2018-08-31T21:30:48.323Z,58.35
2018-08-31T21:33:16.835Z,52.70
2018-08-31T21:35:45.359Z,55.98
2018-08-31T21:38:13.907Z,74.80
2018-08-31T21:40:42.430Z,61.25
2018-08-31T21:43:11.047Z,63.73
2018-08-31T21:45:39.629Z,66.50
2018-08-31T21:48:08.322Z,76.42
2018-08-31T21:50:36.797Z,62.10
2018-08-31T21:53:05.470Z,55.48
2018-08-31T21:55:33.971Z,49.23
2018-08-31T21:58:02.492Z,39.67
2018-08-31T22:00:34.632Z,47.05
2018-08-31T22:03:03.169Z,39.78
2018-08-31T22:05:31.669Z,56.18
2018-08-31T22:08:00.177Z,46.65
2018-08-31T22:10:28.680Z,41.85
2018-08-31T22:12:57.166Z,35.45
2018-08-31T22:15:27.455Z,36.28
2018-08-31T22:17:56.569Z,41.60
2018-08-31T22:20:25.157Z,42.98
2018-08-31T22:22:54.738Z,54.50
2018-08-31T22:25:24.278Z,41.08
2018-08-31T22:27:52.776Z,39.45
2018-08-31T22:30:21.267Z,57.23
2018-08-31T22:32:49.762Z,43.55
2018-08-31T22:35:18.265Z,41.85
2018-08-31T22:37:46.759Z,50.28
2018-08-31T22:40:15.273Z,47.53
2018-08-31T22:42:43.754Z,54.70
2018-08-31T22:45:14.157Z,70.40
2018-08-31T22:47:43.784Z,65.83
2018-08-31T22:50:12.975Z,60.30
2018-08-31T22:52:41.479Z,66.80
2018-08-31T22:55:10.022Z,57.27
2018-08-31T22:57:38.512Z,67.78
2018-08-31T23:00:07.202Z,65.83
2018-08-31T23:02:35.774Z,60.15
2018-08-31T23:05:04.532Z,63.98
2018-08-31T23:07:38.481Z,94.92
2018-08-31T23:10:07.374Z,69.42
2018-08-31T23:12:35.854Z,53.75
2018-08-31T23:15:04.423Z,64.25
2018-08-31T23:17:33.024Z,41.30
2018-08-31T23:20:01.610Z,31.57
2018-08-31T23:22:30.418Z,41.18
2018-08-31T23:24:59.998Z,21.33
2018-08-31T23:27:29.314Z,20.45
2018-08-31T23:29:57.809Z,17.40
2018-08-31T23:32:26.976Z,16.30
2018-08-31T23:34:55.975Z,13.25
2018-08-31T23:37:24.499Z,25.02
2018-08-31T23:39:53.038Z,14.47
2018-08-31T23:42:21.546Z,14.28
2018-08-31T23:44:50.053Z,19.70
2018-08-31T23:47:18.634Z,20.02
2018-08-31T23:49:47.126Z,17.65
2018-08-31T23:52:15.852Z,19.90
2018-08-31T23:54:44.340Z,32.35
2018-08-31T23:57:12.833Z,31.50
2018-08-31T23:59:41.362Z,35.85
